sensor_id;sensor_type;location;lat;lon;timestamp;P1;durP1;ratioP1;P2;durP2;ratioP2
14118;SDS011;7138;49.246;9.100;2023-04-25T00:00:00;10.15;;;6.22;;
14118;SDS011;7138;49.246;9.100;2023-04-25T00:02:28;9.70;;;6.28;;
14118;SDS011;7138;49.246;9.100;2023-04-25T00:04:54;10.55;;;6.35;;
14118;SDS011;7138;49.246;9.100;2023-04-25T00:07:23;9.40;;;6.60;;
14118;SDS011;7138;49.246;9.100;2023-04-25T00:09:50;10.30;;;6.20;;
14118;SDS011;7138;49.246;9.100;2023-04-25T00:12:17;9.57;;;6.53;;
14118;SDS011;7138;49.246;9.100;2023-04-25T00:14:43;9.50;;;6.07;;
14118;SDS011;7138;49.246;9.100;2023-04-25T00:17:10;8.55;;;6.28;;
14118;SDS011;7138;49.246;9.100;2023-04-25T00:19:36;8.57;;;6.00;;
14118;SDS011;7138;49.246;9.100;2023-04-25T00:22:03;11.40;;;6.82;;
14118;SDS011;7138;49.246;9.100;2023-04-25T00:24:30;10.55;;;6.47;;
14118;SDS011;7138;49.246;9.100;2023-04-25T00:26:56;9.93;;;6.88;;
14118;SDS011;7138;49.246;9.100;2023-04-25T00:29:23;10.35;;;6.82;;
14118;SDS011;7138;49.246;9.100;2023-04-25T00:31:49;10.57;;;6.10;;
14118;SDS011;7138;49.246;9.100;2023-04-25T00:34:15;9.73;;;6.50;;
14118;SDS011;7138;49.246;9.100;2023-04-25T00:36:40;8.95;;;6.68;;
14118;SDS011;7138;49.246;9.100;2023-04-25T00:39:06;11.55;;;6.95;;
14118;SDS011;7138;49.246;9.100;2023-04-25T00:41:32;8.25;;;5.78;;
14118;SDS011;7138;49.246;9.100;2023-04-25T00:43:58;11.18;;;7.20;;
14118;SDS011;7138;49.246;9.100;2023-04-25T00:46:27;11.38;;;6.65;;
14118;SDS011;7138;49.246;9.100;2023-04-25T00:48:53;11.55;;;6.70;;
14118;SDS011;7138;49.246;9.100;2023-04-25T00:51:20;9.38;;;6.80;;
14118;SDS011;7138;49.246;9.100;2023-04-25T00:53:46;10.57;;;6.30;;
14118;SDS011;7138;49.246;9.100;2023-04-25T00:56:14;9.25;;;6.35;;
14118;SDS011;7138;49.246;9.100;2023-04-25T00:58:41;8.82;;;6.40;;
14118;SDS011;7138;49.246;9.100;2023-04-25T01:01:08;8.18;;;5.53;;
14118;SDS011;7138;49.246;9.100;2023-04-25T01:03:37;9.43;;;5.95;;
14118;SDS011;7138;49.246;9.100;2023-04-25T01:06:07;10.10;;;6.10;;
14118;SDS011;7138;49.246;9.100;2023-04-25T01:08:35;11.27;;;6.03;;
14118;SDS011;7138;49.246;9.100;2023-04-25T01:11:02;7.93;;;5.70;;
14118;SDS011;7138;49.246;9.100;2023-04-25T01:13:28;8.35;;;5.65;;
14118;SDS011;7138;49.246;9.100;2023-04-25T01:15:54;9.63;;;5.93;;
14118;SDS011;7138;49.246;9.100;2023-04-25T01:18:20;7.63;;;5.78;;
14118;SDS011;7138;49.246;9.100;2023-04-25T01:20:48;8.40;;;5.60;;
14118;SDS011;7138;49.246;9.100;2023-04-25T01:23:18;9.30;;;5.63;;
14118;SDS011;7138;49.246;9.100;2023-04-25T01:25:45;10.77;;;6.30;;
14118;SDS011;7138;49.246;9.100;2023-04-25T01:28:13;9.40;;;5.75;;
14118;SDS011;7138;49.246;9.100;2023-04-25T01:30:39;9.57;;;5.82;;
14118;SDS011;7138;49.246;9.100;2023-04-25T01:33:06;7.97;;;5.45;;
14118;SDS011;7138;49.246;9.100;2023-04-25T01:35:33;9.35;;;5.55;;
14118;SDS011;7138;49.246;9.100;2023-04-25T01:37:59;8.55;;;5.32;;
14118;SDS011;7138;49.246;9.100;2023-04-25T01:40:27;9.23;;;6.20;;
14118;SDS011;7138;49.246;9.100;2023-04-25T01:42:53;7.40;;;5.15;;
14118;SDS011;7138;49.246;9.100;2023-04-25T01:45:20;9.40;;;5.97;;
14118;SDS011;7138;49.246;9.100;2023-04-25T01:47:46;11.35;;;5.93;;
14118;SDS011;7138;49.246;9.100;2023-04-25T01:50:14;9.23;;;5.68;;
14118;SDS011;7138;49.246;9.100;2023-04-25T01:52:42;8.60;;;5.82;;
14118;SDS011;7138;49.246;9.100;2023-04-25T01:55:08;9.50;;;6.53;;
14118;SDS011;7138;49.246;9.100;2023-04-25T01:57:36;8.88;;;5.30;;
14118;SDS011;7138;49.246;9.100;2023-04-25T02:00:03;9.15;;;5.55;;
14118;SDS011;7138;49.246;9.100;2023-04-25T02:02:34;8.40;;;5.55;;
14118;SDS011;7138;49.246;9.100;2023-04-25T02:05:00;8.43;;;5.85;;
14118;SDS011;7138;49.246;9.100;2023-04-25T02:07:26;9.60;;;5.70;;
14118;SDS011;7138;49.246;9.100;2023-04-25T02:09:52;9.80;;;5.72;;
14118;SDS011;7138;49.246;9.100;2023-04-25T02:12:18;10.23;;;6.05;;
14118;SDS011;7138;49.246;9.100;2023-04-25T02:14:45;9.57;;;6.25;;
14118;SDS011;7138;49.246;9.100;2023-04-25T02:17:11;11.30;;;5.80;;
14118;SDS011;7138;49.246;9.100;2023-04-25T02:19:37;9.10;;;5.60;;
14118;SDS011;7138;49.246;9.100;2023-04-25T02:22:03;8.27;;;5.80;;
14118;SDS011;7138;49.246;9.100;2023-04-25T02:24:29;8.63;;;5.80;;
14118;SDS011;7138;49.246;9.100;2023-04-25T02:26:56;8.65;;;5.65;;
14118;SDS011;7138;49.246;9.100;2023-04-25T02:29:22;8.50;;;6.03;;
14118;SDS011;7138;49.246;9.100;2023-04-25T02:31:49;9.00;;;6.03;;
14118;SDS011;7138;49.246;9.100;2023-04-25T02:34:15;9.05;;;5.90;;
14118;SDS011;7138;49.246;9.100;2023-04-25T02:36:41;7.93;;;5.35;;
14118;SDS011;7138;49.246;9.100;2023-04-25T02:39:07;11.02;;;6.10;;
14118;SDS011;7138;49.246;9.100;2023-04-25T02:41:33;8.73;;;5.75;;
14118;SDS011;7138;49.246;9.100;2023-04-25T02:43:59;10.88;;;6.07;;
14118;SDS011;7138;49.246;9.100;2023-04-25T02:46:25;8.52;;;5.82;;
14118;SDS011;7138;49.246;9.100;2023-04-25T02:48:52;10.32;;;6.20;;
14118;SDS011;7138;49.246;9.100;2023-04-25T02:51:18;9.80;;;6.30;;
14118;SDS011;7138;49.246;9.100;2023-04-25T02:53:44;10.52;;;6.50;;
14118;SDS011;7138;49.246;9.100;2023-04-25T02:56:09;10.30;;;6.70;;
14118;SDS011;7138;49.246;9.100;2023-04-25T02:58:35;9.20;;;6.50;;
14118;SDS011;7138;49.246;9.100;2023-04-25T03:01:01;8.82;;;6.35;;
14118;SDS011;7138;49.246;9.100;2023-04-25T03:03:27;10.93;;;6.93;;
14118;SDS011;7138;49.246;9.100;2023-04-25T03:05:54;10.45;;;6.70;;
14118;SDS011;7138;49.246;9.100;2023-04-25T03:08:20;9.73;;;6.85;;
14118;SDS011;7138;49.246;9.100;2023-04-25T03:10:46;11.48;;;7.75;;
14118;SDS011;7138;49.246;9.100;2023-04-25T03:13:12;10.70;;;6.90;;
14118;SDS011;7138;49.246;9.100;2023-04-25T03:15:38;11.38;;;6.95;;
14118;SDS011;7138;49.246;9.100;2023-04-25T03:18:04;11.23;;;6.85;;
14118;SDS011;7138;49.246;9.100;2023-04-25T03:20:30;12.15;;;7.07;;
14118;SDS011;7138;49.246;9.100;2023-04-25T03:22:57;10.98;;;6.88;;
14118;SDS011;7138;49.246;9.100;2023-04-25T03:25:23;10.00;;;7.15;;
14118;SDS011;7138;49.246;9.100;2023-04-25T03:27:49;9.95;;;6.68;;
14118;SDS011;7138;49.246;9.100;2023-04-25T03:30:14;11.13;;;6.80;;
14118;SDS011;7138;49.246;9.100;2023-04-25T03:32:40;9.50;;;6.72;;
14118;SDS011;7138;49.246;9.100;2023-04-25T03:35:06;9.57;;;6.82;;
14118;SDS011;7138;49.246;9.100;2023-04-25T03:37:33;11.90;;;6.90;;
14118;SDS011;7138;49.246;9.100;2023-04-25T03:40:01;11.75;;;7.00;;
14118;SDS011;7138;49.246;9.100;2023-04-25T03:42:27;11.13;;;7.25;;
14118;SDS011;7138;49.246;9.100;2023-04-25T03:44:53;9.75;;;6.93;;
14118;SDS011;7138;49.246;9.100;2023-04-25T03:47:19;12.27;;;7.32;;
14118;SDS011;7138;49.246;9.100;2023-04-25T03:49:45;11.52;;;7.20;;
14118;SDS011;7138;49.246;9.100;2023-04-25T03:52:10;10.80;;;7.43;;
14118;SDS011;7138;49.246;9.100;2023-04-25T03:54:36;11.35;;;7.88;;
14118;SDS011;7138;49.246;9.100;2023-04-25T03:57:03;12.10;;;7.50;;
14118;SDS011;7138;49.246;9.100;2023-04-25T03:59:29;11.68;;;7.45;;
14118;SDS011;7138;49.246;9.100;2023-04-25T04:01:56;12.75;;;7.57;;
14118;SDS011;7138;49.246;9.100;2023-04-25T04:04:21;11.63;;;8.00;;
14118;SDS011;7138;49.246;9.100;2023-04-25T04:06:47;12.98;;;8.48;;
14118;SDS011;7138;49.246;9.100;2023-04-25T04:09:13;12.73;;;9.23;;
14118;SDS011;7138;49.246;9.100;2023-04-25T04:11:40;13.00;;;8.30;;
14118;SDS011;7138;49.246;9.100;2023-04-25T04:14:07;15.48;;;8.63;;
14118;SDS011;7138;49.246;9.100;2023-04-25T04:16:34;13.48;;;8.65;;
14118;SDS011;7138;49.246;9.100;2023-04-25T04:19:00;13.30;;;8.60;;
14118;SDS011;7138;49.246;9.100;2023-04-25T04:21:26;14.40;;;8.48;;
14118;SDS011;7138;49.246;9.100;2023-04-25T04:23:52;12.20;;;9.02;;
14118;SDS011;7138;49.246;9.100;2023-04-25T04:26:19;13.30;;;8.18;;
14118;SDS011;7138;49.246;9.100;2023-04-25T04:28:48;11.18;;;8.50;;
14118;SDS011;7138;49.246;9.100;2023-04-25T04:31:17;12.13;;;8.35;;
14118;SDS011;7138;49.246;9.100;2023-04-25T04:33:44;14.70;;;9.02;;
14118;SDS011;7138;49.246;9.100;2023-04-25T04:36:10;13.50;;;9.23;;
14118;SDS011;7138;49.246;9.100;2023-04-25T04:38:36;12.77;;;8.73;;
14118;SDS011;7138;49.246;9.100;2023-04-25T04:41:02;14.32;;;9.15;;
14118;SDS011;7138;49.246;9.100;2023-04-25T04:43:28;14.75;;;9.05;;
14118;SDS011;7138;49.246;9.100;2023-04-25T04:45:54;12.65;;;8.90;;
14118;SDS011;7138;49.246;9.100;2023-04-25T04:48:23;14.02;;;8.98;;
14118;SDS011;7138;49.246;9.100;2023-04-25T04:50:48;15.00;;;10.02;;
14118;SDS011;7138;49.246;9.100;2023-04-25T04:53:15;13.55;;;9.23;;
14118;SDS011;7138;49.246;9.100;2023-04-25T04:55:40;15.60;;;10.05;;
14118;SDS011;7138;49.246;9.100;2023-04-25T04:58:07;14.25;;;8.93;;
14118;SDS011;7138;49.246;9.100;2023-04-25T05:00:33;15.38;;;10.18;;
14118;SDS011;7138;49.246;9.100;2023-04-25T05:02:59;14.13;;;9.15;;
14118;SDS011;7138;49.246;9.100;2023-04-25T05:05:26;13.40;;;9.23;;
14118;SDS011;7138;49.246;9.100;2023-04-25T05:07:52;13.90;;;9.00;;
14118;SDS011;7138;49.246;9.100;2023-04-25T05:10:18;12.80;;;9.10;;
14118;SDS011;7138;49.246;9.100;2023-04-25T05:12:45;15.82;;;9.27;;
14118;SDS011;7138;49.246;9.100;2023-04-25T05:15:11;13.95;;;8.85;;
14118;SDS011;7138;49.246;9.100;2023-04-25T05:17:37;13.45;;;8.73;;
14118;SDS011;7138;49.246;9.100;2023-04-25T05:20:04;14.45;;;9.10;;
14118;SDS011;7138;49.246;9.100;2023-04-25T05:22:33;11.25;;;7.93;;
14118;SDS011;7138;49.246;9.100;2023-04-25T05:24:59;13.65;;;8.23;;
14118;SDS011;7138;49.246;9.100;2023-04-25T05:27:25;12.20;;;8.80;;
14118;SDS011;7138;49.246;9.100;2023-04-25T05:29:51;13.63;;;8.18;;
14118;SDS011;7138;49.246;9.100;2023-04-25T05:32:17;14.43;;;9.38;;
14118;SDS011;7138;49.246;9.100;2023-04-25T05:34:43;14.77;;;9.02;;
14118;SDS011;7138;49.246;9.100;2023-04-25T05:37:09;14.27;;;9.55;;
14118;SDS011;7138;49.246;9.100;2023-04-25T05:39:36;13.82;;;9.15;;
14118;SDS011;7138;49.246;9.100;2023-04-25T05:42:02;15.05;;;9.40;;
14118;SDS011;7138;49.246;9.100;2023-04-25T05:44:28;15.77;;;9.55;;
14118;SDS011;7138;49.246;9.100;2023-04-25T05:46:55;13.65;;;9.52;;
14118;SDS011;7138;49.246;9.100;2023-04-25T05:49:21;15.77;;;9.68;;
14118;SDS011;7138;49.246;9.100;2023-04-25T05:51:46;15.23;;;9.88;;
14118;SDS011;7138;49.246;9.100;2023-04-25T05:54:12;17.95;;;10.13;;
14118;SDS011;7138;49.246;9.100;2023-04-25T05:56:39;16.98;;;10.43;;
14118;SDS011;7138;49.246;9.100;2023-04-25T05:59:05;15.60;;;9.98;;
14118;SDS011;7138;49.246;9.100;2023-04-25T06:01:31;15.60;;;9.77;;
14118;SDS011;7138;49.246;9.100;2023-04-25T06:03:57;13.85;;;9.13;;
14118;SDS011;7138;49.246;9.100;2023-04-25T06:06:23;15.38;;;9.98;;
14118;SDS011;7138;49.246;9.100;2023-04-25T06:08:49;16.40;;;10.13;;
14118;SDS011;7138;49.246;9.100;2023-04-25T06:11:15;14.68;;;10.18;;
14118;SDS011;7138;49.246;9.100;2023-04-25T06:13:42;17.83;;;10.50;;
14118;SDS011;7138;49.246;9.100;2023-04-25T06:16:08;14.60;;;10.35;;
14118;SDS011;7138;49.246;9.100;2023-04-25T06:18:34;14.40;;;9.90;;
14118;SDS011;7138;49.246;9.100;2023-04-25T06:21:00;13.25;;;9.52;;
14118;SDS011;7138;49.246;9.100;2023-04-25T06:23:26;15.75;;;9.82;;
14118;SDS011;7138;49.246;9.100;2023-04-25T06:25:51;14.10;;;10.63;;
14118;SDS011;7138;49.246;9.100;2023-04-25T06:28:17;15.68;;;11.27;;
14118;SDS011;7138;49.246;9.100;2023-04-25T06:30:45;16.55;;;10.85;;
14118;SDS011;7138;49.246;9.100;2023-04-25T06:33:11;15.07;;;10.75;;
14118;SDS011;7138;49.246;9.100;2023-04-25T06:35:37;12.27;;;9.35;;
14118;SDS011;7138;49.246;9.100;2023-04-25T06:38:03;11.77;;;9.25;;
14118;SDS011;7138;49.246;9.100;2023-04-25T06:40:28;13.68;;;10.35;;
14118;SDS011;7138;49.246;9.100;2023-04-25T06:42:54;14.63;;;10.40;;
14118;SDS011;7138;49.246;9.100;2023-04-25T06:45:20;13.63;;;9.73;;
14118;SDS011;7138;49.246;9.100;2023-04-25T06:47:47;15.20;;;10.88;;
14118;SDS011;7138;49.246;9.100;2023-04-25T06:50:13;14.30;;;9.82;;
14118;SDS011;7138;49.246;9.100;2023-04-25T06:52:39;13.70;;;9.63;;
14118;SDS011;7138;49.246;9.100;2023-04-25T06:55:05;13.23;;;9.13;;
14118;SDS011;7138;49.246;9.100;2023-04-25T06:57:32;12.68;;;9.48;;
14118;SDS011;7138;49.246;9.100;2023-04-25T06:59:57;14.27;;;10.60;;
14118;SDS011;7138;49.246;9.100;2023-04-25T07:02:23;13.98;;;9.25;;
14118;SDS011;7138;49.246;9.100;2023-04-25T07:04:50;12.77;;;9.32;;
14118;SDS011;7138;49.246;9.100;2023-04-25T07:07:16;12.18;;;9.10;;
14118;SDS011;7138;49.246;9.100;2023-04-25T07:09:42;13.48;;;9.82;;
14118;SDS011;7138;49.246;9.100;2023-04-25T07:12:08;13.50;;;10.43;;
14118;SDS011;7138;49.246;9.100;2023-04-25T07:14:34;15.13;;;11.23;;
14118;SDS011;7138;49.246;9.100;2023-04-25T07:17:00;12.05;;;9.18;;
14118;SDS011;7138;49.246;9.100;2023-04-25T07:19:26;12.07;;;9.18;;
14118;SDS011;7138;49.246;9.100;2023-04-25T07:21:56;12.80;;;9.07;;
14118;SDS011;7138;49.246;9.100;2023-04-25T07:24:21;14.55;;;9.57;;
14118;SDS011;7138;49.246;9.100;2023-04-25T07:26:47;13.77;;;9.77;;
14118;SDS011;7138;49.246;9.100;2023-04-25T07:29:13;13.60;;;9.43;;
14118;SDS011;7138;49.246;9.100;2023-04-25T07:31:39;13.65;;;8.73;;
14118;SDS011;7138;49.246;9.100;2023-04-25T07:34:05;12.60;;;9.55;;
14118;SDS011;7138;49.246;9.100;2023-04-25T07:36:31;13.73;;;9.30;;
14118;SDS011;7138;49.246;9.100;2023-04-25T07:38:58;14.50;;;10.70;;
14118;SDS011;7138;49.246;9.100;2023-04-25T07:41:24;14.07;;;10.63;;
14118;SDS011;7138;49.246;9.100;2023-04-25T07:43:49;14.15;;;9.85;;
14118;SDS011;7138;49.246;9.100;2023-04-25T07:46:15;15.80;;;10.57;;
14118;SDS011;7138;49.246;9.100;2023-04-25T07:48:41;12.60;;;10.10;;
14118;SDS011;7138;49.246;9.100;2023-04-25T07:51:07;14.20;;;10.32;;
14118;SDS011;7138;49.246;9.100;2023-04-25T07:53:33;14.63;;;10.10;;
14118;SDS011;7138;49.246;9.100;2023-04-25T07:56:01;13.27;;;9.25;;
14118;SDS011;7138;49.246;9.100;2023-04-25T07:58:27;10.55;;;7.93;;
14118;SDS011;7138;49.246;9.100;2023-04-25T08:00:52;12.85;;;8.70;;
14118;SDS011;7138;49.246;9.100;2023-04-25T08:03:18;12.07;;;9.13;;
14118;SDS011;7138;49.246;9.100;2023-04-25T08:05:45;13.18;;;9.73;;
14118;SDS011;7138;49.246;9.100;2023-04-25T08:08:11;14.98;;;9.20;;
14118;SDS011;7138;49.246;9.100;2023-04-25T08:10:37;14.32;;;9.13;;
14118;SDS011;7138;49.246;9.100;2023-04-25T08:13:04;12.20;;;7.95;;
14118;SDS011;7138;49.246;9.100;2023-04-25T08:15:30;12.00;;;8.52;;
14118;SDS011;7138;49.246;9.100;2023-04-25T08:17:55;17.65;;;9.00;;
14118;SDS011;7138;49.246;9.100;2023-04-25T08:20:21;11.45;;;8.43;;
14118;SDS011;7138;49.246;9.100;2023-04-25T08:22:47;11.07;;;8.07;;
14118;SDS011;7138;49.246;9.100;2023-04-25T08:25:13;13.43;;;8.50;;
14118;SDS011;7138;49.246;9.100;2023-04-25T08:27:39;14.05;;;8.88;;
14118;SDS011;7138;49.246;9.100;2023-04-25T08:30:07;13.40;;;8.63;;
14118;SDS011;7138;49.246;9.100;2023-04-25T08:32:34;13.50;;;9.35;;
14118;SDS011;7138;49.246;9.100;2023-04-25T08:35:03;12.95;;;8.95;;
14118;SDS011;7138;49.246;9.100;2023-04-25T08:37:29;12.75;;;8.82;;
14118;SDS011;7138;49.246;9.100;2023-04-25T08:39:55;12.98;;;9.75;;
14118;SDS011;7138;49.246;9.100;2023-04-25T08:42:21;13.77;;;9.85;;
14118;SDS011;7138;49.246;9.100;2023-04-25T08:44:49;15.25;;;10.10;;
14118;SDS011;7138;49.246;9.100;2023-04-25T08:47:19;14.35;;;9.95;;
14118;SDS011;7138;49.246;9.100;2023-04-25T08:49:48;14.75;;;9.38;;
14118;SDS011;7138;49.246;9.100;2023-04-25T08:54:47;9.93;;;7.22;;
14118;SDS011;7138;49.246;9.100;2023-04-25T08:57:14;11.40;;;6.03;;
14118;SDS011;7138;49.246;9.100;2023-04-25T08:59:42;11.68;;;7.05;;
14118;SDS011;7138;49.246;9.100;2023-04-25T09:02:10;10.10;;;6.25;;
14118;SDS011;7138;49.246;9.100;2023-04-25T09:04:40;9.65;;;5.82;;
14118;SDS011;7138;49.246;9.100;2023-04-25T09:07:08;12.65;;;7.03;;
14118;SDS011;7138;49.246;9.100;2023-04-25T09:09:34;11.18;;;7.10;;
14118;SDS011;7138;49.246;9.100;2023-04-25T09:12:00;10.93;;;6.40;;
14118;SDS011;7138;49.246;9.100;2023-04-25T09:14:27;11.05;;;7.18;;
14118;SDS011;7138;49.246;9.100;2023-04-25T09:17:00;11.30;;;6.35;;
14118;SDS011;7138;49.246;9.100;2023-04-25T09:19:28;10.07;;;5.35;;
14118;SDS011;7138;49.246;9.100;2023-04-25T09:21:58;9.63;;;5.50;;
14118;SDS011;7138;49.246;9.100;2023-04-25T09:24:33;10.68;;;5.40;;
14118;SDS011;7138;49.246;9.100;2023-04-25T09:27:05;7.13;;;5.00;;
14118;SDS011;7138;49.246;9.100;2023-04-25T09:29:34;8.32;;;4.78;;
14118;SDS011;7138;49.246;9.100;2023-04-25T09:32:12;9.48;;;5.13;;
14118;SDS011;7138;49.246;9.100;2023-04-25T09:34:41;13.23;;;4.88;;
14118;SDS011;7138;49.246;9.100;2023-04-25T09:37:11;10.80;;;4.95;;
14118;SDS011;7138;49.246;9.100;2023-04-25T09:39:42;10.73;;;4.95;;
14118;SDS011;7138;49.246;9.100;2023-04-25T09:42:11;10.93;;;5.20;;
14118;SDS011;7138;49.246;9.100;2023-04-25T09:44:36;11.88;;;5.65;;
14118;SDS011;7138;49.246;9.100;2023-04-25T09:47:08;9.27;;;5.10;;
14118;SDS011;7138;49.246;9.100;2023-04-25T09:49:38;7.90;;;4.90;;
14118;SDS011;7138;49.246;9.100;2023-04-25T09:54:33;8.52;;;4.78;;
14118;SDS011;7138;49.246;9.100;2023-04-25T09:57:00;8.00;;;4.82;;
14118;SDS011;7138;49.246;9.100;2023-04-25T09:59:36;10.32;;;5.57;;
14118;SDS011;7138;49.246;9.100;2023-04-25T10:02:07;8.45;;;4.82;;
14118;SDS011;7138;49.246;9.100;2023-04-25T10:04:34;11.98;;;4.93;;
14118;SDS011;7138;49.246;9.100;2023-04-25T10:07:03;10.93;;;4.80;;
14118;SDS011;7138;49.246;9.100;2023-04-25T10:09:33;6.85;;;3.88;;
14118;SDS011;7138;49.246;9.100;2023-04-25T10:12:03;7.32;;;4.18;;
14118;SDS011;7138;49.246;9.100;2023-04-25T10:14:31;9.52;;;4.00;;
14118;SDS011;7138;49.246;9.100;2023-04-25T10:16:57;8.13;;;3.35;;
14118;SDS011;7138;49.246;9.100;2023-04-25T10:19:24;6.28;;;3.40;;
14118;SDS011;7138;49.246;9.100;2023-04-25T10:21:52;6.00;;;3.65;;
14118;SDS011;7138;49.246;9.100;2023-04-25T10:24:23;7.97;;;3.70;;
14118;SDS011;7138;49.246;9.100;2023-04-25T10:26:53;8.93;;;2.90;;
14118;SDS011;7138;49.246;9.100;2023-04-25T10:29:24;6.63;;;3.22;;
14118;SDS011;7138;49.246;9.100;2023-04-25T10:31:51;7.50;;;3.42;;
14118;SDS011;7138;49.246;9.100;2023-04-25T10:34:17;10.05;;;3.50;;
14118;SDS011;7138;49.246;9.100;2023-04-25T10:36:51;6.88;;;3.10;;
14118;SDS011;7138;49.246;9.100;2023-04-25T10:39:21;10.02;;;3.63;;
14118;SDS011;7138;49.246;9.100;2023-04-25T10:41:53;7.57;;;3.65;;
14118;SDS011;7138;49.246;9.100;2023-04-25T10:44:22;6.10;;;2.80;;
14118;SDS011;7138;49.246;9.100;2023-04-25T10:49:30;6.28;;;2.78;;
14118;SDS011;7138;49.246;9.100;2023-04-25T10:52:15;7.85;;;2.58;;
14118;SDS011;7138;49.246;9.100;2023-04-25T10:54:52;5.57;;;2.67;;
14118;SDS011;7138;49.246;9.100;2023-04-25T10:57:28;5.22;;;2.38;;
14118;SDS011;7138;49.246;9.100;2023-04-25T10:59:58;10.05;;;3.10;;
14118;SDS011;7138;49.246;9.100;2023-04-25T11:04:53;5.43;;;2.53;;
14118;SDS011;7138;49.246;9.100;2023-04-25T11:07:22;6.30;;;2.60;;
14118;SDS011;7138;49.246;9.100;2023-04-25T11:12:30;4.55;;;2.42;;
14118;SDS011;7138;49.246;9.100;2023-04-25T11:15:00;8.10;;;2.70;;
14118;SDS011;7138;49.246;9.100;2023-04-25T11:17:28;7.40;;;2.40;;
14118;SDS011;7138;49.246;9.100;2023-04-25T11:19:55;7.50;;;2.45;;
14118;SDS011;7138;49.246;9.100;2023-04-25T11:22:21;5.88;;;2.60;;
14118;SDS011;7138;49.246;9.100;2023-04-25T11:24:48;6.00;;;2.55;;
14118;SDS011;7138;49.246;9.100;2023-04-25T11:27:14;8.18;;;2.83;;
14118;SDS011;7138;49.246;9.100;2023-04-25T11:29:41;7.80;;;2.80;;
14118;SDS011;7138;49.246;9.100;2023-04-25T11:32:07;8.77;;;2.90;;
14118;SDS011;7138;49.246;9.100;2023-04-25T11:34:33;4.63;;;2.65;;
14118;SDS011;7138;49.246;9.100;2023-04-25T11:36:59;7.22;;;2.80;;
14118;SDS011;7138;49.246;9.100;2023-04-25T11:39:29;7.82;;;2.72;;
14118;SDS011;7138;49.246;9.100;2023-04-25T11:41:55;8.25;;;2.90;;
14118;SDS011;7138;49.246;9.100;2023-04-25T11:44:21;8.55;;;2.90;;
14118;SDS011;7138;49.246;9.100;2023-04-25T11:46:48;8.15;;;2.60;;
14118;SDS011;7138;49.246;9.100;2023-04-25T11:49:15;7.00;;;2.70;;
14118;SDS011;7138;49.246;9.100;2023-04-25T11:51:43;11.57;;;3.83;;
14118;SDS011;7138;49.246;9.100;2023-04-25T11:54:12;8.77;;;3.43;;
14118;SDS011;7138;49.246;9.100;2023-04-25T11:56:40;7.90;;;3.63;;
14118;SDS011;7138;49.246;9.100;2023-04-25T11:59:07;8.70;;;4.00;;
14118;SDS011;7138;49.246;9.100;2023-04-25T12:01:33;9.60;;;3.45;;
14118;SDS011;7138;49.246;9.100;2023-04-25T12:04:11;9.30;;;3.63;;
14118;SDS011;7138;49.246;9.100;2023-04-25T12:06:39;10.23;;;3.65;;
14118;SDS011;7138;49.246;9.100;2023-04-25T12:09:07;8.65;;;2.88;;
14118;SDS011;7138;49.246;9.100;2023-04-25T12:11:40;6.75;;;3.30;;
14118;SDS011;7138;49.246;9.100;2023-04-25T12:14:07;7.22;;;3.25;;
14118;SDS011;7138;49.246;9.100;2023-04-25T12:16:39;8.40;;;3.90;;
14118;SDS011;7138;49.246;9.100;2023-04-25T12:19:07;7.85;;;3.50;;
14118;SDS011;7138;49.246;9.100;2023-04-25T12:21:34;9.15;;;4.00;;
14118;SDS011;7138;49.246;9.100;2023-04-25T12:24:09;6.68;;;3.20;;
14118;SDS011;7138;49.246;9.100;2023-04-25T12:26:47;7.95;;;3.90;;
14118;SDS011;7138;49.246;9.100;2023-04-25T12:29:16;8.50;;;3.80;;
14118;SDS011;7138;49.246;9.100;2023-04-25T12:31:43;8.80;;;4.15;;
14118;SDS011;7138;49.246;9.100;2023-04-25T12:34:10;10.90;;;4.35;;
14118;SDS011;7138;49.246;9.100;2023-04-25T12:36:37;6.82;;;4.00;;
14118;SDS011;7138;49.246;9.100;2023-04-25T12:39:03;10.60;;;4.80;;
14118;SDS011;7138;49.246;9.100;2023-04-25T12:41:29;10.90;;;5.15;;
14118;SDS011;7138;49.246;9.100;2023-04-25T12:43:56;12.60;;;4.70;;
14118;SDS011;7138;49.246;9.100;2023-04-25T12:46:21;11.27;;;4.60;;
14118;SDS011;7138;49.246;9.100;2023-04-25T12:48:50;9.55;;;4.97;;
14118;SDS011;7138;49.246;9.100;2023-04-25T12:51:16;6.32;;;3.35;;
14118;SDS011;7138;49.246;9.100;2023-04-25T12:53:43;9.68;;;4.03;;
14118;SDS011;7138;49.246;9.100;2023-04-25T12:56:09;8.68;;;3.88;;
14118;SDS011;7138;49.246;9.100;2023-04-25T12:58:36;8.07;;;4.10;;
14118;SDS011;7138;49.246;9.100;2023-04-25T13:01:02;7.53;;;3.78;;
14118;SDS011;7138;49.246;9.100;2023-04-25T13:03:28;8.38;;;3.85;;
14118;SDS011;7138;49.246;9.100;2023-04-25T13:05:53;8.13;;;3.47;;
14118;SDS011;7138;49.246;9.100;2023-04-25T13:08:19;6.72;;;3.42;;
14118;SDS011;7138;49.246;9.100;2023-04-25T13:10:47;4.63;;;2.47;;
14118;SDS011;7138;49.246;9.100;2023-04-25T13:13:13;5.53;;;2.80;;
14118;SDS011;7138;49.246;9.100;2023-04-25T13:15:38;4.05;;;2.03;;
14118;SDS011;7138;49.246;9.100;2023-04-25T13:18:04;3.67;;;1.90;;
14118;SDS011;7138;49.246;9.100;2023-04-25T13:20:30;4.63;;;1.50;;
14118;SDS011;7138;49.246;9.100;2023-04-25T13:22:56;3.22;;;1.38;;
14118;SDS011;7138;49.246;9.100;2023-04-25T13:25:22;3.53;;;1.40;;
14118;SDS011;7138;49.246;9.100;2023-04-25T13:27:49;6.25;;;1.67;;
14118;SDS011;7138;49.246;9.100;2023-04-25T13:30:15;3.45;;;1.50;;
14118;SDS011;7138;49.246;9.100;2023-04-25T13:32:41;5.00;;;1.95;;
14118;SDS011;7138;49.246;9.100;2023-04-25T13:35:08;3.92;;;2.03;;
14118;SDS011;7138;49.246;9.100;2023-04-25T13:37:36;4.03;;;1.70;;
14118;SDS011;7138;49.246;9.100;2023-04-25T13:40:03;6.22;;;2.40;;
14118;SDS011;7138;49.246;9.100;2023-04-25T13:42:34;3.92;;;2.00;;
14118;SDS011;7138;49.246;9.100;2023-04-25T13:45:01;6.78;;;2.08;;
14118;SDS011;7138;49.246;9.100;2023-04-25T13:47:28;4.38;;;1.67;;
14118;SDS011;7138;49.246;9.100;2023-04-25T13:49:55;5.85;;;2.30;;
14118;SDS011;7138;49.246;9.100;2023-04-25T13:52:21;5.25;;;2.30;;
14118;SDS011;7138;49.246;9.100;2023-04-25T13:54:49;4.95;;;2.40;;
14118;SDS011;7138;49.246;9.100;2023-04-25T13:57:15;4.32;;;2.13;;
14118;SDS011;7138;49.246;9.100;2023-04-25T13:59:41;5.13;;;2.20;;
14118;SDS011;7138;49.246;9.100;2023-04-25T14:02:08;6.60;;;2.60;;
14118;SDS011;7138;49.246;9.100;2023-04-25T14:04:34;6.00;;;2.10;;
14118;SDS011;7138;49.246;9.100;2023-04-25T14:07:00;4.88;;;2.13;;
14118;SDS011;7138;49.246;9.100;2023-04-25T14:09:28;5.80;;;2.65;;
14118;SDS011;7138;49.246;9.100;2023-04-25T14:11:54;4.90;;;2.50;;
14118;SDS011;7138;49.246;9.100;2023-04-25T14:14:21;6.53;;;2.50;;
14118;SDS011;7138;49.246;9.100;2023-04-25T14:16:48;5.72;;;2.22;;
14118;SDS011;7138;49.246;9.100;2023-04-25T14:19:16;5.18;;;2.42;;
14118;SDS011;7138;49.246;9.100;2023-04-25T14:21:43;6.18;;;2.47;;
14118;SDS011;7138;49.246;9.100;2023-04-25T14:24:09;4.07;;;2.10;;
14118;SDS011;7138;49.246;9.100;2023-04-25T14:26:36;4.95;;;2.50;;
14118;SDS011;7138;49.246;9.100;2023-04-25T14:29:02;5.78;;;2.60;;
14118;SDS011;7138;49.246;9.100;2023-04-25T14:31:30;5.75;;;2.60;;
14118;SDS011;7138;49.246;9.100;2023-04-25T14:33:56;7.00;;;2.65;;
14118;SDS011;7138;49.246;9.100;2023-04-25T14:36:23;5.22;;;2.38;;
14118;SDS011;7138;49.246;9.100;2023-04-25T14:38:51;5.93;;;2.90;;
14118;SDS011;7138;49.246;9.100;2023-04-25T14:41:17;7.82;;;2.75;;
14118;SDS011;7138;49.246;9.100;2023-04-25T14:43:43;6.55;;;2.60;;
14118;SDS011;7138;49.246;9.100;2023-04-25T14:46:10;8.38;;;2.47;;
14118;SDS011;7138;49.246;9.100;2023-04-25T14:48:36;6.05;;;2.30;;
14118;SDS011;7138;49.246;9.100;2023-04-25T14:51:02;5.63;;;2.58;;
14118;SDS011;7138;49.246;9.100;2023-04-25T14:53:30;4.80;;;2.40;;
14118;SDS011;7138;49.246;9.100;2023-04-25T14:55:56;5.50;;;2.90;;
14118;SDS011;7138;49.246;9.100;2023-04-25T14:58:22;5.47;;;2.10;;
14118;SDS011;7138;49.246;9.100;2023-04-25T15:00:48;3.92;;;2.00;;
14118;SDS011;7138;49.246;9.100;2023-04-25T15:03:15;5.28;;;2.40;;